sensor_id;sensor_type;location;lat;lon;timestamp;pressure;altitude;pressure_sealevel;temperature;humidity
9721;BME280;4899;42.644;23.366;2022-12-18T00:00:45;94967.66;;;7.78;100.00
9721;BME280;4899;42.644;23.366;2022-12-18T00:03:13;94977.41;;;7.76;100.00
9721;BME280;4899;42.644;23.366;2022-12-18T00:05:46;94966.53;;;7.60;100.00
9721;BME280;4899;42.644;23.366;2022-12-18T00:08:12;94977.75;;;7.64;100.00
9721;BME280;4899;42.644;23.366;2022-12-18T00:10:38;94974.91;;;7.71;100.00
9721;BME280;4899;42.644;23.366;2022-12-18T00:13:03;94990.69;;;7.49;100.00
9721;BME280;4899;42.644;23.366;2022-12-18T00:15:28;94979.09;;;7.57;100.00
9721;BME280;4899;42.644;23.366;2022-12-18T00:17:54;94985.31;;;7.51;100.00
9721;BME280;4899;42.644;23.366;2022-12-18T00:20:19;94993.53;;;7.48;100.00
9721;BME280;4899;42.644;23.366;2022-12-18T00:22:53;95008.25;;;7.61;100.00
9721;BME280;4899;42.644;23.366;2022-12-18T00:25:19;94996.63;;;7.39;100.00
9721;BME280;4899;42.644;23.366;2022-12-18T00:27:44;94995.41;;;7.32;100.00
9721;BME280;4899;42.644;23.366;2022-12-18T00:30:10;94991.28;;;7.36;100.00
9721;BME280;4899;42.644;23.366;2022-12-18T00:32:36;95007.09;;;7.48;100.00
9721;BME280;4899;42.644;23.366;2022-12-18T00:35:03;95005.56;;;7.47;100.00
9721;BME280;4899;42.644;23.366;2022-12-18T00:37:28;95009.25;;;7.31;100.00
9721;BME280;4899;42.644;23.366;2022-12-18T00:39:54;95005.66;;;7.32;100.00
9721;BME280;4899;42.644;23.366;2022-12-18T00:42:19;95001.81;;;7.29;100.00
9721;BME280;4899;42.644;23.366;2022-12-18T00:45:03;95003.91;;;7.27;100.00
9721;BME280;4899;42.644;23.366;2022-12-18T00:47:29;95015.47;;;7.15;100.00
9721;BME280;4899;42.644;23.366;2022-12-18T00:49:54;95008.00;;;7.23;100.00
9721;BME280;4899;42.644;23.366;2022-12-18T00:52:20;95023.13;;;7.20;100.00
9721;BME280;4899;42.644;23.366;2022-12-18T00:54:45;95010.38;;;7.09;100.00
9721;BME280;4899;42.644;23.366;2022-12-18T00:57:10;94988.66;;;7.07;100.00
9721;BME280;4899;42.644;23.366;2022-12-18T00:59:36;95025.78;;;7.04;100.00
9721;BME280;4899;42.644;23.366;2022-12-18T01:02:01;95012.22;;;7.04;100.00
9721;BME280;4899;42.644;23.366;2022-12-18T01:04:27;95025.69;;;7.15;100.00
9721;BME280;4899;42.644;23.366;2022-12-18T01:06:52;95024.44;;;7.12;100.00
9721;BME280;4899;42.644;23.366;2022-12-18T01:09:18;95026.75;;;7.08;100.00
9721;BME280;4899;42.644;23.366;2022-12-18T01:11:43;95027.25;;;7.10;100.00
9721;BME280;4899;42.644;23.366;2022-12-18T01:14:08;95010.22;;;6.91;100.00
9721;BME280;4899;42.644;23.366;2022-12-18T01:16:35;95037.53;;;7.05;100.00
9721;BME280;4899;42.644;23.366;2022-12-18T01:19:00;95046.28;;;6.94;100.00
9721;BME280;4899;42.644;23.366;2022-12-18T01:21:25;95016.00;;;6.57;100.00
9721;BME280;4899;42.644;23.366;2022-12-18T01:23:53;95043.81;;;6.69;100.00
9721;BME280;4899;42.644;23.366;2022-12-18T01:26:19;95029.53;;;6.58;100.00
9721;BME280;4899;42.644;23.366;2022-12-18T01:28:44;95034.09;;;6.66;100.00
9721;BME280;4899;42.644;23.366;2022-12-18T01:33:36;95058.69;;;6.52;100.00
9721;BME280;4899;42.644;23.366;2022-12-18T01:36:01;95061.28;;;6.46;100.00
9721;BME280;4899;42.644;23.366;2022-12-18T01:38:28;95041.09;;;6.40;100.00
9721;BME280;4899;42.644;23.366;2022-12-18T01:41:00;95069.47;;;6.33;100.00
9721;BME280;4899;42.644;23.366;2022-12-18T01:43:47;95028.09;;;6.16;100.00
9721;BME280;4899;42.644;23.366;2022-12-18T01:46:13;95060.03;;;6.24;100.00
9721;BME280;4899;42.644;23.366;2022-12-18T01:48:40;95045.50;;;5.99;100.00
9721;BME280;4899;42.644;23.366;2022-12-18T01:51:08;95060.31;;;6.12;100.00
9721;BME280;4899;42.644;23.366;2022-12-18T01:53:36;95044.50;;;6.00;100.00
9721;BME280;4899;42.644;23.366;2022-12-18T01:56:02;95069.00;;;6.01;100.00
9721;BME280;4899;42.644;23.366;2022-12-18T01:58:52;95064.63;;;5.81;100.00
9721;BME280;4899;42.644;23.366;2022-12-18T02:01:23;95065.69;;;6.05;100.00
9721;BME280;4899;42.644;23.366;2022-12-18T02:03:49;95074.59;;;5.93;100.00
9721;BME280;4899;42.644;23.366;2022-12-18T02:06:23;95069.25;;;5.99;100.00
9721;BME280;4899;42.644;23.366;2022-12-18T02:11:38;95081.75;;;5.91;100.00
9721;BME280;4899;42.644;23.366;2022-12-18T02:19:20;95076.13;;;6.09;100.00
9721;BME280;4899;42.644;23.366;2022-12-18T02:27:24;95086.88;;;6.01;100.00
9721;BME280;4899;42.644;23.366;2022-12-18T02:29:53;95085.09;;;6.01;100.00
9721;BME280;4899;42.644;23.366;2022-12-18T02:32:25;95064.38;;;5.77;100.00
9721;BME280;4899;42.644;23.366;2022-12-18T02:34:55;95069.47;;;5.87;100.00
9721;BME280;4899;42.644;23.366;2022-12-18T02:37:22;95090.97;;;6.02;100.00
9721;BME280;4899;42.644;23.366;2022-12-18T02:39:52;95099.91;;;6.04;100.00
9721;BME280;4899;42.644;23.366;2022-12-18T02:42:19;95089.41;;;5.91;100.00
9721;BME280;4899;42.644;23.366;2022-12-18T02:44:47;95096.59;;;5.99;100.00
9721;BME280;4899;42.644;23.366;2022-12-18T02:47:14;95088.38;;;5.86;100.00
9721;BME280;4899;42.644;23.366;2022-12-18T03:00:28;95090.94;;;5.71;100.00
9721;BME280;4899;42.644;23.366;2022-12-18T03:03:04;95101.91;;;5.72;100.00
9721;BME280;4899;42.644;23.366;2022-12-18T03:05:47;95112.06;;;5.56;100.00
9721;BME280;4899;42.644;23.366;2022-12-18T03:08:25;95081.16;;;5.28;100.00
9721;BME280;4899;42.644;23.366;2022-12-18T03:11:02;95116.38;;;5.41;100.00
9721;BME280;4899;42.644;23.366;2022-12-18T03:16:06;95124.06;;;5.46;100.00
9721;BME280;4899;42.644;23.366;2022-12-18T03:18:35;95122.03;;;5.48;100.00
9721;BME280;4899;42.644;23.366;2022-12-18T03:21:05;95122.53;;;5.55;100.00
9721;BME280;4899;42.644;23.366;2022-12-18T03:23:36;95105.91;;;5.32;100.00
9721;BME280;4899;42.644;23.366;2022-12-18T03:26:10;95103.59;;;5.31;100.00
9721;BME280;4899;42.644;23.366;2022-12-18T03:28:45;95135.81;;;5.52;100.00
9721;BME280;4899;42.644;23.366;2022-12-18T03:31:13;95129.66;;;5.48;100.00
9721;BME280;4899;42.644;23.366;2022-12-18T03:33:45;95135.75;;;5.42;100.00
9721;BME280;4899;42.644;23.366;2022-12-18T03:36:12;95138.59;;;5.50;100.00
9721;BME280;4899;42.644;23.366;2022-12-18T03:38:37;95137.31;;;5.48;100.00
9721;BME280;4899;42.644;23.366;2022-12-18T03:46:20;95164.81;;;5.31;100.00
9721;BME280;4899;42.644;23.366;2022-12-18T03:49:43;95157.34;;;5.19;100.00
9721;BME280;4899;42.644;23.366;2022-12-18T03:51:54;95174.25;;;5.25;100.00
9721;BME280;4899;42.644;23.366;2022-12-18T03:54:21;95174.78;;;5.37;100.00
9721;BME280;4899;42.644;23.366;2022-12-18T03:56:53;95183.19;;;5.33;100.00
9721;BME280;4899;42.644;23.366;2022-12-18T03:59:20;95187.53;;;5.32;100.00
9721;BME280;4899;42.644;23.366;2022-12-18T04:01:49;95163.78;;;5.27;100.00
9721;BME280;4899;42.644;23.366;2022-12-18T04:04:17;95159.16;;;5.18;100.00
9721;BME280;4899;42.644;23.366;2022-12-18T04:06:45;95182.91;;;5.29;100.00
9721;BME280;4899;42.644;23.366;2022-12-18T04:09:11;95170.41;;;5.22;100.00
9721;BME280;4899;42.644;23.366;2022-12-18T04:11:37;95173.44;;;5.19;100.00
9721;BME280;4899;42.644;23.366;2022-12-18T04:14:02;95185.22;;;5.36;100.00
9721;BME280;4899;42.644;23.366;2022-12-18T04:16:28;95187.00;;;5.25;100.00
9721;BME280;4899;42.644;23.366;2022-12-18T04:18:54;95184.97;;;5.32;100.00
9721;BME280;4899;42.644;23.366;2022-12-18T04:21:20;95194.06;;;5.18;100.00
9721;BME280;4899;42.644;23.366;2022-12-18T04:23:45;95193.88;;;5.24;100.00
9721;BME280;4899;42.644;23.366;2022-12-18T04:26:11;95199.00;;;5.35;100.00
9721;BME280;4899;42.644;23.366;2022-12-18T04:28:36;95187.28;;;5.39;100.00
9721;BME280;4899;42.644;23.366;2022-12-18T04:31:02;95206.66;;;5.30;100.00
9721;BME280;4899;42.644;23.366;2022-12-18T04:33:27;95213.78;;;5.33;100.00
9721;BME280;4899;42.644;23.366;2022-12-18T04:35:53;95200.94;;;5.12;100.00
9721;BME280;4899;42.644;23.366;2022-12-18T04:38:18;95216.06;;;5.29;100.00
9721;BME280;4899;42.644;23.366;2022-12-18T04:40:44;95181.53;;;5.06;100.00
9721;BME280;4899;42.644;23.366;2022-12-18T04:43:09;95213.47;;;5.19;100.00
9721;BME280;4899;42.644;23.366;2022-12-18T04:45:35;95247.53;;;4.98;100.00
9721;BME280;4899;42.644;23.366;2022-12-18T04:48:02;95233.31;;;5.07;100.00
9721;BME280;4899;42.644;23.366;2022-12-18T04:50:28;95225.88;;;5.00;100.00
9721;BME280;4899;42.644;23.366;2022-12-18T04:52:55;95248.81;;;5.00;100.00
9721;BME280;4899;42.644;23.366;2022-12-18T04:55:21;95271.78;;;5.05;100.00
9721;BME280;4899;42.644;23.366;2022-12-18T04:57:46;95262.09;;;5.02;100.00
9721;BME280;4899;42.644;23.366;2022-12-18T05:00:12;95246.22;;;4.95;100.00
9721;BME280;4899;42.644;23.366;2022-12-18T05:02:37;95237.09;;;4.99;100.00
9721;BME280;4899;42.644;23.366;2022-12-18T05:05:03;95243.63;;;4.90;100.00
9721;BME280;4899;42.644;23.366;2022-12-18T05:07:29;95251.31;;;4.95;100.00
9721;BME280;4899;42.644;23.366;2022-12-18T05:09:54;95259.53;;;5.02;100.00
9721;BME280;4899;42.644;23.366;2022-12-18T05:12:20;95224.72;;;4.81;100.00
9721;BME280;4899;42.644;23.366;2022-12-18T05:14:45;95246.59;;;4.72;100.00
9721;BME280;4899;42.644;23.366;2022-12-18T05:17:10;95271.16;;;4.88;100.00
9721;BME280;4899;42.644;23.366;2022-12-18T05:19:37;95268.59;;;4.83;100.00
9721;BME280;4899;42.644;23.366;2022-12-18T05:22:03;95262.97;;;4.81;100.00
9721;BME280;4899;42.644;23.366;2022-12-18T05:24:28;95283.31;;;4.76;100.00
9721;BME280;4899;42.644;23.366;2022-12-18T05:26:53;95269.63;;;4.87;100.00
9721;BME280;4899;42.644;23.366;2022-12-18T05:29:19;95277.38;;;4.97;100.00
9721;BME280;4899;42.644;23.366;2022-12-18T05:31:44;95287.00;;;4.95;100.00
9721;BME280;4899;42.644;23.366;2022-12-18T05:34:10;95270.19;;;4.62;100.00
9721;BME280;4899;42.644;23.366;2022-12-18T05:36:35;95308.31;;;4.79;100.00
9721;BME280;4899;42.644;23.366;2022-12-18T05:39:01;95281.84;;;4.85;100.00
9721;BME280;4899;42.644;23.366;2022-12-18T05:41:27;95271.84;;;4.73;100.00
9721;BME280;4899;42.644;23.366;2022-12-18T05:43:52;95282.88;;;4.89;100.00
9721;BME280;4899;42.644;23.366;2022-12-18T05:46:18;95277.50;;;4.80;100.00
9721;BME280;4899;42.644;23.366;2022-12-18T05:48:44;95301.34;;;5.01;100.00
9721;BME280;4899;42.644;23.366;2022-12-18T05:51:15;95291.16;;;5.01;100.00
9721;BME280;4899;42.644;23.366;2022-12-18T05:53:41;95299.81;;;5.00;100.00
9721;BME280;4899;42.644;23.366;2022-12-18T05:56:12;95292.31;;;4.88;100.00
9721;BME280;4899;42.644;23.366;2022-12-18T05:58:38;95299.16;;;4.83;100.00
9721;BME280;4899;42.644;23.366;2022-12-18T06:01:13;95301.09;;;4.71;100.00
9721;BME280;4899;42.644;23.366;2022-12-18T06:03:39;95308.06;;;4.80;100.00
9721;BME280;4899;42.644;23.366;2022-12-18T06:06:12;95324.13;;;4.81;100.00
9721;BME280;4899;42.644;23.366;2022-12-18T06:08:41;95321.59;;;4.81;100.00
9721;BME280;4899;42.644;23.366;2022-12-18T06:11:06;95310.06;;;4.73;100.00
9721;BME280;4899;42.644;23.366;2022-12-18T06:13:32;95327.16;;;4.78;100.00
9721;BME280;4899;42.644;23.366;2022-12-18T06:15:57;95323.09;;;4.77;100.00
9721;BME280;4899;42.644;23.366;2022-12-18T06:18:22;95315.44;;;4.77;100.00
9721;BME280;4899;42.644;23.366;2022-12-18T06:20:58;95321.16;;;4.62;100.00
9721;BME280;4899;42.644;23.366;2022-12-18T06:23:23;95325.59;;;4.72;100.00
9721;BME280;4899;42.644;23.366;2022-12-18T06:25:49;95347.56;;;4.78;100.00
9721;BME280;4899;42.644;23.366;2022-12-18T06:28:14;95331.31;;;4.57;100.00
9721;BME280;4899;42.644;23.366;2022-12-18T06:30:43;95333.16;;;4.67;100.00
9721;BME280;4899;42.644;23.366;2022-12-18T06:33:08;95334.78;;;4.73;100.00
9721;BME280;4899;42.644;23.366;2022-12-18T06:35:34;95334.94;;;4.66;100.00
9721;BME280;4899;42.644;23.366;2022-12-18T06:38:01;95359.25;;;4.47;100.00
9721;BME280;4899;42.644;23.366;2022-12-18T06:40:26;95348.97;;;4.69;100.00
9721;BME280;4899;42.644;23.366;2022-12-18T06:42:51;95350.91;;;4.83;100.00
9721;BME280;4899;42.644;23.366;2022-12-18T06:45:17;95360.19;;;4.68;100.00
9721;BME280;4899;42.644;23.366;2022-12-18T06:47:42;95365.91;;;4.80;100.00
9721;BME280;4899;42.644;23.366;2022-12-18T06:50:08;95357.09;;;4.92;100.00
9721;BME280;4899;42.644;23.366;2022-12-18T06:52:34;95354.75;;;4.86;100.00
9721;BME280;4899;42.644;23.366;2022-12-18T06:54:59;95360.88;;;4.85;100.00
9721;BME280;4899;42.644;23.366;2022-12-18T06:57:25;95390.09;;;5.04;100.00
9721;BME280;4899;42.644;23.366;2022-12-18T06:59:50;95357.56;;;4.57;100.00
9721;BME280;4899;42.644;23.366;2022-12-18T07:02:16;95401.50;;;4.70;100.00
9721;BME280;4899;42.644;23.366;2022-12-18T07:04:41;95385.81;;;4.83;100.00
9721;BME280;4899;42.644;23.366;2022-12-18T07:07:06;95397.94;;;4.71;100.00
9721;BME280;4899;42.644;23.366;2022-12-18T07:09:32;95372.69;;;4.69;100.00
9721;BME280;4899;42.644;23.366;2022-12-18T07:11:57;95374.09;;;4.82;100.00
9721;BME280;4899;42.644;23.366;2022-12-18T07:14:23;95368.91;;;4.99;100.00
9721;BME280;4899;42.644;23.366;2022-12-18T07:16:48;95377.34;;;5.04;100.00
9721;BME280;4899;42.644;23.366;2022-12-18T07:19:13;95371.44;;;4.99;100.00
9721;BME280;4899;42.644;23.366;2022-12-18T07:21:39;95376.31;;;5.00;100.00
9721;BME280;4899;42.644;23.366;2022-12-18T07:24:05;95376.22;;;4.95;100.00
9721;BME280;4899;42.644;23.366;2022-12-18T07:26:30;95391.03;;;5.25;100.00
9721;BME280;4899;42.644;23.366;2022-12-18T07:28:57;95398.06;;;5.13;100.00
9721;BME280;4899;42.644;23.366;2022-12-18T07:31:23;95392.81;;;5.24;100.00
9721;BME280;4899;42.644;23.366;2022-12-18T07:33:50;95394.72;;;5.07;100.00
9721;BME280;4899;42.644;23.366;2022-12-18T07:36:15;95403.13;;;4.81;100.00
9721;BME280;4899;42.644;23.366;2022-12-18T07:38:41;95407.22;;;5.09;100.00
9721;BME280;4899;42.644;23.366;2022-12-18T07:41:11;95389.94;;;4.89;100.00
9721;BME280;4899;42.644;23.366;2022-12-18T07:43:38;95402.19;;;4.87;100.00
9721;BME280;4899;42.644;23.366;2022-12-18T07:46:04;95394.47;;;4.82;100.00
9721;BME280;4899;42.644;23.366;2022-12-18T07:48:30;95426.41;;;4.89;100.00
9721;BME280;4899;42.644;23.366;2022-12-18T07:51:05;95435.84;;;4.89;100.00
9721;BME280;4899;42.644;23.366;2022-12-18T07:53:32;95423.44;;;4.98;100.00
9721;BME280;4899;42.644;23.366;2022-12-18T07:56:00;95444.13;;;5.01;100.00
9721;BME280;4899;42.644;23.366;2022-12-18T07:58:26;95428.41;;;4.60;100.00
9721;BME280;4899;42.644;23.366;2022-12-18T08:00:51;95433.34;;;4.94;100.00
9721;BME280;4899;42.644;23.366;2022-12-18T08:03:17;95432.44;;;5.05;100.00
9721;BME280;4899;42.644;23.366;2022-12-18T08:05:43;95423.13;;;4.94;100.00
9721;BME280;4899;42.644;23.366;2022-12-18T08:08:08;95447.09;;;4.93;100.00
9721;BME280;4899;42.644;23.366;2022-12-18T08:10:34;95460.41;;;4.73;100.00
9721;BME280;4899;42.644;23.366;2022-12-18T08:12:59;95436.31;;;4.59;100.00
9721;BME280;4899;42.644;23.366;2022-12-18T08:15:25;95461.53;;;4.82;100.00
9721;BME280;4899;42.644;23.366;2022-12-18T08:20:34;95448.09;;;4.43;100.00
9721;BME280;4899;42.644;23.366;2022-12-18T08:22:59;95472.84;;;4.70;100.00
9721;BME280;4899;42.644;23.366;2022-12-18T08:25:25;95474.66;;;4.47;100.00
9721;BME280;4899;42.644;23.366;2022-12-18T08:27:50;95481.53;;;4.47;100.00
9721;BME280;4899;42.644;23.366;2022-12-18T08:30:16;95459.94;;;4.54;100.00
9721;BME280;4899;42.644;23.366;2022-12-18T08:32:41;95502.06;;;4.62;100.00
9721;BME280;4899;42.644;23.366;2022-12-18T08:35:07;95474.38;;;4.71;100.00
9721;BME280;4899;42.644;23.366;2022-12-18T08:37:33;95481.03;;;4.72;100.00
9721;BME280;4899;42.644;23.366;2022-12-18T08:39:59;95482.22;;;4.64;100.00
9721;BME280;4899;42.644;23.366;2022-12-18T08:42:25;95476.19;;;4.48;100.00
9721;BME280;4899;42.644;23.366;2022-12-18T08:45:09;95489.88;;;4.64;100.00
9721;BME280;4899;42.644;23.366;2022-12-18T08:47:34;95481.91;;;4.60;100.00
9721;BME280;4899;42.644;23.366;2022-12-18T08:50:00;95490.63;;;4.64;100.00
9721;BME280;4899;42.644;23.366;2022-12-18T08:52:25;95507.63;;;4.59;100.00
9721;BME280;4899;42.644;23.366;2022-12-18T08:54:50;95483.69;;;4.60;100.00
9721;BME280;4899;42.644;23.366;2022-12-18T08:57:16;95478.06;;;4.80;100.00
9721;BME280;4899;42.644;23.366;2022-12-18T08:59:41;95491.00;;;4.73;100.00
9721;BME280;4899;42.644;23.366;2022-12-18T09:02:11;95482.31;;;4.96;100.00
9721;BME280;4899;42.644;23.366;2022-12-18T09:04:36;95486.50;;;5.07;100.00
9721;BME280;4899;42.644;23.366;2022-12-18T09:07:02;95493.66;;;5.10;100.00
9721;BME280;4899;42.644;23.366;2022-12-18T09:09:27;95489.63;;;4.87;100.00
9721;BME280;4899;42.644;23.366;2022-12-18T09:11:53;95482.13;;;5.03;100.00
9721;BME280;4899;42.644;23.366;2022-12-18T09:14:18;95478.53;;;4.99;100.00
9721;BME280;4899;42.644;23.366;2022-12-18T09:16:44;95468.56;;;4.97;100.00
9721;BME280;4899;42.644;23.366;2022-12-18T09:19:09;95474.31;;;4.87;100.00
9721;BME280;4899;42.644;23.366;2022-12-18T09:21:35;95481.94;;;5.09;100.00
9721;BME280;4899;42.644;23.366;2022-12-18T09:24:00;95480.19;;;4.88;100.00
9721;BME280;4899;42.644;23.366;2022-12-18T09:26:26;95478.56;;;5.04;100.00
9721;BME280;4899;42.644;23.366;2022-12-18T09:28:52;95489.66;;;5.19;100.00
9721;BME280;4899;42.644;23.366;2022-12-18T09:31:20;95485.59;;;5.18;100.00
9721;BME280;4899;42.644;23.366;2022-12-18T09:33:46;95504.00;;;5.20;100.00
9721;BME280;4899;42.644;23.366;2022-12-18T09:36:15;95494.19;;;5.12;100.00
9721;BME280;4899;42.644;23.366;2022-12-18T09:38:41;95492.81;;;5.00;100.00
9721;BME280;4899;42.644;23.366;2022-12-18T09:46:40;95501.81;;;4.85;100.00
9721;BME280;4899;42.644;23.366;2022-12-18T09:49:12;95494.06;;;4.97;100.00
9721;BME280;4899;42.644;23.366;2022-12-18T09:51:44;95493.44;;;5.12;100.00
9721;BME280;4899;42.644;23.366;2022-12-18T09:54:15;95481.88;;;5.04;100.00
9721;BME280;4899;42.644;23.366;2022-12-18T09:56:43;95477.31;;;5.06;100.00
9721;BME280;4899;42.644;23.366;2022-12-18T09:59:32;95490.31;;;5.32;100.00
9721;BME280;4899;42.644;23.366;2022-12-18T10:01:59;95490.38;;;5.42;100.00
9721;BME280;4899;42.644;23.366;2022-12-18T10:04:26;95486.44;;;5.56;100.00
9721;BME280;4899;42.644;23.366;2022-12-18T10:07:08;95480.84;;;5.59;100.00
9721;BME280;4899;42.644;23.366;2022-12-18T10:09:51;95477.59;;;5.69;100.00
9721;BME280;4899;42.644;23.366;2022-12-18T10:12:46;95488.59;;;5.42;100.00
9721;BME280;4899;42.644;23.366;2022-12-18T10:15:38;95488.44;;;5.49;100.00
9721;BME280;4899;42.644;23.366;2022-12-18T10:26:03;95504.25;;;4.97;100.00
9721;BME280;4899;42.644;23.366;2022-12-18T10:28:34;95485.56;;;4.91;100.00
9721;BME280;4899;42.644;23.366;2022-12-18T10:31:00;95501.56;;;5.09;100.00
9721;BME280;4899;42.644;23.366;2022-12-18T10:33:44;95507.13;;;4.79;100.00
9721;BME280;4899;42.644;23.366;2022-12-18T10:36:10;95495.41;;;5.05;100.00
9721;BME280;4899;42.644;23.366;2022-12-18T10:38:36;95485.94;;;5.00;100.00
9721;BME280;4899;42.644;23.366;2022-12-18T10:41:04;95494.09;;;5.02;100.00
9721;BME280;4899;42.644;23.366;2022-12-18T10:43:38;95494.72;;;4.87;100.00
9721;BME280;4899;42.644;23.366;2022-12-18T10:51:33;95464.88;;;4.88;100.00
9721;BME280;4899;42.644;23.366;2022-12-18T10:54:04;95488.84;;;5.14;100.00
9721;BME280;4899;42.644;23.366;2022-12-18T10:56:33;95468.16;;;5.10;100.00
9721;BME280;4899;42.644;23.366;2022-12-18T10:59:03;95508.41;;;4.81;100.00
9721;BME280;4899;42.644;23.366;2022-12-18T11:04:16;95452.34;;;4.59;100.00
9721;BME280;4899;42.644;23.366;2022-12-18T11:06:54;95511.00;;;5.08;100.00
9721;BME280;4899;42.644;23.366;2022-12-18T11:09:22;95481.41;;;5.07;100.00
9721;BME280;4899;42.644;23.366;2022-12-18T11:11:50;95478.16;;;4.90;100.00
9721;BME280;4899;42.644;23.366;2022-12-18T11:14:23;95491.81;;;5.01;100.00
9721;BME280;4899;42.644;23.366;2022-12-18T11:16:50;95465.38;;;5.12;100.00
9721;BME280;4899;42.644;23.366;2022-12-18T11:21:49;95486.25;;;5.09;100.00
9721;BME280;4899;42.644;23.366;2022-12-18T11:24:36;95509.16;;;5.04;100.00
9721;BME280;4899;42.644;23.366;2022-12-18T11:27:03;95490.63;;;5.13;100.00
9721;BME280;4899;42.644;23.366;2022-12-18T11:29:37;95483.97;;;5.07;100.00
9721;BME280;4899;42.644;23.366;2022-12-18T11:32:24;95473.34;;;4.93;100.00
9721;BME280;4899;42.644;23.366;2022-12-18T11:34:59;95461.72;;;5.03;100.00
9721;BME280;4899;42.644;23.366;2022-12-18T11:37:26;95485.22;;;5.32;100.00
9721;BME280;4899;42.644;23.366;2022-12-18T11:40:11;95493.19;;;5.13;100.00
9721;BME280;4899;42.644;23.366;2022-12-18T11:43:22;95487.72;;;5.27;100.00
9721;BME280;4899;42.644;23.366;2022-12-18T11:46:19;95498.88;;;5.20;100.00
9721;BME280;4899;42.644;23.366;2022-12-18T11:51:28;95484.63;;;5.24;100.00
9721;BME280;4899;42.644;23.366;2022-12-18T11:53:57;95490.34;;;5.10;100.00
9721;BME280;4899;42.644;23.366;2022-12-18T11:56:29;95508.69;;;5.34;100.00
9721;BME280;4899;42.644;23.366;2022-12-18T12:04:56;95484.81;;;5.18;100.00
9721;BME280;4899;42.644;23.366;2022-12-18T12:16:39;95506.88;;;5.61;100.00
9721;BME280;4899;42.644;23.366;2022-12-18T12:30:02;95466.81;;;5.30;100.00
9721;BME280;4899;42.644;23.366;2022-12-18T12:40:29;95474.78;;;6.02;100.00
9721;BME280;4899;42.644;23.366;2022-12-18T12:46:00;95501.16;;;5.81;100.00
9721;BME280;4899;42.644;23.366;2022-12-18T12:48:47;95480.19;;;5.74;100.00
9721;BME280;4899;42.644;23.366;2022-12-18T12:51:28;95492.09;;;5.63;100.00
9721;BME280;4899;42.644;23.366;2022-12-18T12:53:57;95493.56;;;5.54;100.00
9721;BME280;4899;42.644;23.366;2022-12-18T12:56:27;95514.81;;;5.33;100.00
9721;BME280;4899;42.644;23.366;2022-12-18T13:01:40;95512.16;;;5.22;100.00
9721;BME280;4899;42.644;23.366;2022-12-18T13:07:01;95519.88;;;5.28;100.00
9721;BME280;4899;42.644;23.366;2022-12-18T13:09:31;95531.69;;;5.39;100.00
9721;BME280;4899;42.644;23.366;2022-12-18T13:12:02;95518.84;;;5.29;100.00
9721;BME280;4899;42.644;23.366;2022-12-18T13:14:46;95527.47;;;5.49;100.00
9721;BME280;4899;42.644;23.366;2022-12-18T13:20:12;95540.94;;;5.45;100.00
9721;BME280;4899;42.644;23.366;2022-12-18T13:22:46;95520.91;;;5.59;100.00
9721;BME280;4899;42.644;23.366;2022-12-18T13:38:42;95548.88;;;5.21;100.00
9721;BME280;4899;42.644;23.366;2022-12-18T13:43:33;95543.53;;;5.23;100.00
9721;BME280;4899;42.644;23.366;2022-12-18T13:46:20;95561.28;;;5.13;100.00
9721;BME280;4899;42.644;23.366;2022-12-18T13:51:44;95560.47;;;5.34;100.00
9721;BME280;4899;42.644;23.366;2022-12-18T13:54:33;95556.25;;;5.45;100.00
9721;BME280;4899;42.644;23.366;2022-12-18T13:56:59;95569.72;;;5.67;100.00
9721;BME280;4899;42.644;23.366;2022-12-18T13:59:32;95559.16;;;5.53;100.00
9721;BME280;4899;42.644;23.366;2022-12-18T14:02:01;95567.22;;;5.72;100.00
9721;BME280;4899;42.644;23.366;2022-12-18T14:04:33;95566.25;;;5.78;100.00
9721;BME280;4899;42.644;23.366;2022-12-18T14:07:04;95571.81;;;5.70;100.00
9721;BME280;4899;42.644;23.366;2022-12-18T14:09:34;95541.91;;;5.39;100.00
9721;BME280;4899;42.644;23.366;2022-12-18T14:12:01;95573.44;;;5.54;100.00
9721;BME280;4899;42.644;23.366;2022-12-18T14:14:47;95560.72;;;5.33;100.00
9721;BME280;4899;42.644;23.366;2022-12-18T14:17:14;95558.38;;;5.26;100.00
9721;BME280;4899;42.644;23.366;2022-12-18T14:19:45;95571.16;;;5.31;100.00
9721;BME280;4899;42.644;23.366;2022-12-18T14:22:17;95581.09;;;5.28;100.00
9721;BME280;4899;42.644;23.366;2022-12-18T14:24:43;95582.16;;;5.32;100.00
9721;BME280;4899;42.644;23.366;2022-12-18T14:27:25;95585.59;;;5.20;100.00
9721;BME280;4899;42.644;23.366;2022-12-18T14:29:51;95581.09;;;5.28;100.00
9721;BME280;4899;42.644;23.366;2022-12-18T14:32:18;95574.94;;;5.23;100.00
9721;BME280;4899;42.644;23.366;2022-12-18T14:34:49;95567.28;;;5.02;100.00
9721;BME280;4899;42.644;23.366;2022-12-18T14:37:21;95590.53;;;5.05;100.00
9721;BME280;4899;42.644;23.366;2022-12-18T14:40:01;95594.09;;;5.04;100.00
9721;BME280;4899;42.644;23.366;2022-12-18T14:42:43;95575.81;;;4.90;100.00
9721;BME280;4899;42.644;23.366;2022-12-18T14:45:34;95587.50;;;5.08;100.00
9721;BME280;4899;42.644;23.366;2022-12-18T14:48:00;95560.22;;;4.87;100.00
9721;BME280;4899;42.644;23.366;2022-12-18T14:50:26;95571.56;;;4.96;100.00
9721;BME280;4899;42.644;23.366;2022-12-18T14:52:51;95596.56;;;4.99;100.00
9721;BME280;4899;42.644;23.366;2022-12-18T14:55:18;95575.50;;;4.87;100.00
9721;BME280;4899;42.644;23.366;2022-12-18T14:57:45;95575.03;;;4.90;100.00
9721;BME280;4899;42.644;23.366;2022-12-18T15:00:20;95588.44;;;5.02;100.00
9721;BME280;4899;42.644;23.366;2022-12-18T15:02:55;95581.03;;;5.01;100.00
9721;BME280;4899;42.644;23.366;2022-12-18T15:05:29;95592.50;;;4.98;100.00
9721;BME280;4899;42.644;23.366;2022-12-18T15:07:57;95568.94;;;4.91;100.00
9721;BME280;4899;42.644;23.366;2022-12-18T15:10:25;95597.69;;;5.08;100.00
9721;BME280;4899;42.644;23.366;2022-12-18T15:20:31;95599.00;;;4.89;100.00
9721;BME280;4899;42.644;23.366;2022-12-18T15:22:57;95608.13;;;4.85;100.00
9721;BME280;4899;42.644;23.366;2022-12-18T15:25:28;95605.16;;;4.93;100.00
9721;BME280;4899;42.644;23.366;2022-12-18T15:27:56;95596.16;;;4.85;100.00
9721;BME280;4899;42.644;23.366;2022-12-18T15:30:23;95592.31;;;4.66;100.00
9721;BME280;4899;42.644;23.366;2022-12-18T15:32:49;95591.13;;;4.52;100.00
9721;BME280;4899;42.644;23.366;2022-12-18T15:37:44;95605.66;;;4.35;100.00